WetterOnline ( http://www.wetteronline.de )

Wetter aktuell Seelow

Aktuelles Wetter: Manschnow (16m)

6-stündlich | Neueste Meldungen
Ortszeit Temperatur Wetter
Mo, 20.08. 8:00 19.2° C wolkig
Mo, 20.08. 2:00 15.0° C leicht bewölkt
So, 19.08. 20:00 26.5° C wolkig
So, 19.08. 14:00 28.4° C fast wolkenlos
So, 19.08. 8:00 17.3° C leicht bewölkt
So, 19.08. 2:00 14.0° C wolkig
Sa, 18.08. 20:00 24.1° C wolkig
Sa, 18.08. 14:00 25.0° C bedeckt
Ortszeit Temperatur Wetter
Mo, 20.08. 10:00 24.3° C wolkenlos
Mo, 20.08. 9:50 24.3° C wolkenlos
Mo, 20.08. 9:40 23.8° C wolkenlos
Mo, 20.08. 9:30 23.8° C wolkenlos
Mo, 20.08. 9:20 23.8° C wolkenlos
Mo, 20.08. 9:10 23.3° C leicht bewölkt
Mo, 20.08. 9:00 22.5° C wolkig
Mo, 20.08. 8:30 21.0° C bedeckt
Mo, 20.08. 8:00 19.2° C wolkig
Mo, 20.08. 7:30 16.8° C bedeckt
Mo, 20.08. 7:00 13.9° C bedeckt
Ortszeit Relative Feuchte Sichtweite
Mo, 20.08. 8:00 64% 19 km
Mo, 20.08. 2:00 84% 17 km
So, 19.08. 20:00 38% 28 km
So, 19.08. 14:00 33% 24 km
So, 19.08. 8:00 76% 14 km
So, 19.08. 2:00 85% 17 km
Sa, 18.08. 20:00 47% 26 km
Sa, 18.08. 14:00 46% 30 km
Ortszeit Relative Feuchte Sichtweite
Mo, 20.08. 10:00 50% 17 km
Mo, 20.08. 9:50 50% -
Mo, 20.08. 9:40 52% -
Mo, 20.08. 9:30 51% 25 km
Mo, 20.08. 9:20 51% -
Mo, 20.08. 9:10 53% -
Mo, 20.08. 9:00 56% 19 km
Mo, 20.08. 8:30 60% 22 km
Mo, 20.08. 8:00 64% 19 km
Mo, 20.08. 7:30 75% 14 km
Mo, 20.08. 7:00 84% 14 km
Ortszeit Niederschlagsmenge Niederschlagsart
Mo, 20.08. 8:00 0.0 l/m2 in 12 Std. -
Mo, 20.08. 2:00 0.0 l/m2 in 6 Std. -
So, 19.08. 20:00 0.0 l/m2 in 12 Std. -
So, 19.08. 14:00 0.0 l/m2 in 6 Std. -
So, 19.08. 8:00 0.0 l/m2 in 12 Std. -
So, 19.08. 2:00 0.0 l/m2 in 6 Std. -
Sa, 18.08. 20:00 0.0 l/m2 in 12 Std. -
Sa, 18.08. 14:00 0.0 l/m2 in 6 Std. -
Ortszeit Niederschlagsmenge Niederschlagsart
Mo, 20.08. 10:00 0.0 l/m2 in 1 Std. -
Mo, 20.08. 9:50 keine Meldung -
Mo, 20.08. 9:40 keine Meldung -
Mo, 20.08. 9:30 0.0 l/m2 in 1 Std. -
Mo, 20.08. 9:20 keine Meldung -
Mo, 20.08. 9:10 keine Meldung -
Mo, 20.08. 9:00 0.0 l/m2 in 1 Std. -
Mo, 20.08. 8:30 0.0 l/m2 in 1 Std. -
Mo, 20.08. 8:00 0.0 l/m2 in 1 Std. -
Mo, 20.08. 7:30 0.0 l/m2 in 1 Std. -
Mo, 20.08. 7:00 0.0 l/m2 in 1 Std. -
Ortszeit Stärke Spitze Richtung
km/h Bft. km/h Grad Sektor
Mo, 20.08. 8:00 4 1 14 230° SW
Mo, 20.08. 2:00 0 0 7 - -
So, 19.08. 20:00 4 1 29 50° NO
So, 19.08. 14:00 9 2 26 260° W
So, 19.08. 8:00 4 1 7 190° S
So, 19.08. 2:00 4 1 7 160° S
Sa, 18.08. 20:00 7 2 22 280° W
Sa, 18.08. 14:00 6 1 22 280° W
Ortszeit Stärke Spitze Richtung
km/h Bft. km/h Grad Sektor
Mo, 20.08. 10:00 18 3 32 260° W
Mo, 20.08. 9:50 18 3 - 260° W
Mo, 20.08. 9:40 20 4 - 280° W
Mo, 20.08. 9:30 11 2 22 240° SW
Mo, 20.08. 9:20 11 2 - 240° SW
Mo, 20.08. 9:10 11 2 - 240° SW
Mo, 20.08. 9:00 7 2 11 230° SW
Mo, 20.08. 8:30 7 2 11 230° SW
Mo, 20.08. 8:00 4 1 7 230° SW
Mo, 20.08. 7:30 4 1 7 210° SW
Mo, 20.08. 7:00 4 1 7 210° SW
Ortszeit Untergrenze Bedeckung Gattung
total tief tief mittel hoch
Mo, 20.08. 8:00 - 8/8 - - - -
Mo, 20.08. 2:00 3300 m 3/8 3/8 - - -
So, 19.08. 20:00 - 8/8 - - - -
So, 19.08. 14:00 10500 m 2/8 0/8 - - -
So, 19.08. 8:00 10500 m 7/8 0/8 - - -
So, 19.08. 2:00 10500 m 7/8 0/8 - - -
Sa, 18.08. 20:00 9000 m 8/8 0/8 - - -
Sa, 18.08. 14:00 1500 m 8/8 8/8 - - -
Ortszeit Bedeckungsgrad in Achtel und Wolkenuntergrenze
Mo, 20.08. 10:00 keine Wolken
Mo, 20.08. 9:50 keine Wolken
Mo, 20.08. 9:40 keine Wolken
Mo, 20.08. 9:30 keine Wolken
Mo, 20.08. 9:20 keine Wolken
Mo, 20.08. 9:10 1(1800m) 1(2100m) 3(2700m)
Mo, 20.08. 9:00 9 9 9
Mo, 20.08. 8:30 9 9 9
Mo, 20.08. 8:00 9 9 9
Mo, 20.08. 7:30 9 9 9
Mo, 20.08. 7:00 9 9 9
Ortszeit Luftdruck NN (hPa) Tendenz (hPa in 3 Std.)
Mo, 20.08. 8:00 1016 + 0,8
Mo, 20.08. 2:00 1015 - 0,8
So, 19.08. 20:00 1016 - 1,4
So, 19.08. 14:00 1019 - 1,7
So, 19.08. 8:00 1021 + 0,5
So, 19.08. 2:00 1021 + 0,2
Sa, 18.08. 20:00 1020 - 0,2
Sa, 18.08. 14:00 1021 0,0
Ortszeit Luftdruck NN (hPa) Tendenz (hPa in 3 Std.)
Mo, 20.08. 10:00 1016 + 0,8
Mo, 20.08. 9:50 1016 keine Meldung
Mo, 20.08. 9:40 1016 keine Meldung
Mo, 20.08. 9:30 1016 + 0,8
Mo, 20.08. 9:20 1016 keine Meldung
Mo, 20.08. 9:10 1016 keine Meldung
Mo, 20.08. 9:00 1016 + 1,1
Mo, 20.08. 8:30 1016 + 1,1
Mo, 20.08. 8:00 1016 + 0,8
Mo, 20.08. 7:30 1015 + 0,4
Mo, 20.08. 7:00 1015 + 0,1
Ortszeit Schneehöhe (cm)
Mo, 20.08. 8:00 -
Mo, 20.08. 2:00 -
So, 19.08. 20:00 -
So, 19.08. 14:00 -
So, 19.08. 8:00 -
So, 19.08. 2:00 -
Sa, 18.08. 20:00 -
Sa, 18.08. 14:00 -
Ortszeit Schneehöhe (cm)
Mo, 20.08. 10:00 -
Mo, 20.08. 9:50 -
Mo, 20.08. 9:40 -
Mo, 20.08. 9:30 -
Mo, 20.08. 9:20 -
Mo, 20.08. 9:10 -
Mo, 20.08. 9:00 -
Mo, 20.08. 8:30 -
Mo, 20.08. 8:00 -
Mo, 20.08. 7:30 -
Mo, 20.08. 7:00 -
Link zu dieser Seite / Seite empfehlen

Das Wetter in ...